createdAt,value
2022-12-15T00:00:47.663Z,100.00
2022-12-15T00:03:46.751Z,100.00
2022-12-15T00:06:34.457Z,100.00
2022-12-15T00:09:29.313Z,100.00
2022-12-15T00:12:17.060Z,100.00
2022-12-15T00:15:03.154Z,100.00
2022-12-15T00:17:49.833Z,100.00
2022-12-15T00:20:36.933Z,100.00
2022-12-15T00:23:29.163Z,100.00
2022-12-15T00:26:16.458Z,100.00
2022-12-15T00:29:02.151Z,100.00
2022-12-15T00:31:48.320Z,100.00
2022-12-15T00:34:34.400Z,100.00
2022-12-15T00:37:20.445Z,100.00
2022-12-15T00:39:58.601Z,100.00
2022-12-15T00:42:28.828Z,100.00
2022-12-15T00:44:57.005Z,100.00
2022-12-15T00:47:25.046Z,100.00
2022-12-15T00:50:10.626Z,100.00
2022-12-15T00:52:56.938Z,100.00
2022-12-15T00:55:42.571Z,100.00
2022-12-15T00:58:28.938Z,100.00
2022-12-15T01:01:15.160Z,100.00
2022-12-15T01:04:01.240Z,100.00
2022-12-15T01:06:47.500Z,100.00
2022-12-15T01:09:33.408Z,100.00
2022-12-15T01:12:20.148Z,100.00
2022-12-15T01:15:08.506Z,100.00
2022-12-15T01:17:55.681Z,100.00
2022-12-15T01:20:43.601Z,100.00
2022-12-15T01:23:12.954Z,100.00
2022-12-15T01:25:40.513Z,100.00
2022-12-15T01:28:08.733Z,100.00
2022-12-15T01:30:38.898Z,100.00
2022-12-15T01:33:06.143Z,100.00
2022-12-15T01:35:34.994Z,100.00
2022-12-15T01:38:02.466Z,100.00
2022-12-15T01:40:45.303Z,100.00
2022-12-15T01:43:26.520Z,100.00
2022-12-15T01:45:57.480Z,100.00
2022-12-15T01:48:43.001Z,100.00
2022-12-15T01:51:39.828Z,100.00
2022-12-15T01:54:34.981Z,100.00
2022-12-15T01:57:07.734Z,100.00
2022-12-15T01:59:50.829Z,100.00
2022-12-15T02:02:22.681Z,100.00
2022-12-15T02:04:52.016Z,100.00
2022-12-15T02:07:19.645Z,100.00
2022-12-15T02:09:50.896Z,100.00
2022-12-15T02:12:36.741Z,100.00
2022-12-15T02:15:25.182Z,100.00
2022-12-15T02:18:41.080Z,100.00
2022-12-15T02:21:38.286Z,100.00
2022-12-15T02:24:12.072Z,100.00
2022-12-15T02:26:46.079Z,100.00
2022-12-15T02:29:59.943Z,100.00
2022-12-15T02:32:35.269Z,100.00
2022-12-15T02:35:09.048Z,100.00
2022-12-15T02:37:39.699Z,100.00
2022-12-15T02:40:11.678Z,100.00
2022-12-15T02:42:45.620Z,100.00
2022-12-15T02:45:16.256Z,100.00
2022-12-15T02:48:10.653Z,100.00
2022-12-15T02:50:46.028Z,100.00
2022-12-15T02:53:38.114Z,100.00
2022-12-15T02:56:17.035Z,100.00
2022-12-15T02:59:23.456Z,100.00
2022-12-15T03:02:01.171Z,100.00
2022-12-15T03:04:33.674Z,100.00
2022-12-15T03:07:05.225Z,100.00
2022-12-15T03:09:32.949Z,100.00
2022-12-15T03:12:01.485Z,100.00
2022-12-15T03:14:28.924Z,100.00
2022-12-15T03:16:56.593Z,100.00
2022-12-15T03:19:24.226Z,100.00
2022-12-15T03:21:52.759Z,100.00
2022-12-15T03:24:20.327Z,100.00
2022-12-15T03:26:52.364Z,100.00
2022-12-15T03:29:20.027Z,100.00
2022-12-15T03:31:50.076Z,100.00
2022-12-15T03:34:18.131Z,100.00
2022-12-15T03:36:46.123Z,100.00
2022-12-15T03:39:13.359Z,100.00
2022-12-15T03:41:41.745Z,100.00
2022-12-15T03:44:09.448Z,100.00
2022-12-15T03:46:38.087Z,100.00
2022-12-15T03:49:05.339Z,100.00
2022-12-15T03:51:32.957Z,100.00
2022-12-15T03:54:02.714Z,100.00
2022-12-15T03:56:33.471Z,100.00
2022-12-15T03:59:00.716Z,100.00
2022-12-15T04:01:36.216Z,100.00
2022-12-15T04:04:04.865Z,100.00
2022-12-15T04:06:33.386Z,100.00
2022-12-15T04:09:01.130Z,100.00
2022-12-15T04:11:28.716Z,100.00
2022-12-15T04:13:57.314Z,100.00
2022-12-15T04:16:24.927Z,100.00
2022-12-15T04:19:12.167Z,100.00
2022-12-15T04:21:39.842Z,100.00
2022-12-15T04:24:25.804Z,100.00
2022-12-15T04:27:12.889Z,100.00
2022-12-15T04:29:58.546Z,100.00
2022-12-15T04:32:44.492Z,100.00
2022-12-15T04:35:37.852Z,100.00
2022-12-15T04:38:27.427Z,100.00
2022-12-15T04:41:13.542Z,100.00
2022-12-15T04:43:59.699Z,100.00
2022-12-15T04:46:47.268Z,100.00
2022-12-15T04:49:34.019Z,100.00
2022-12-15T04:52:19.840Z,100.00
2022-12-15T04:55:05.655Z,100.00
2022-12-15T04:57:51.394Z,100.00
2022-12-15T05:00:37.787Z,100.00
2022-12-15T05:03:25.482Z,100.00
2022-12-15T05:06:11.886Z,100.00
2022-12-15T05:08:57.673Z,100.00
2022-12-15T05:11:43.824Z,100.00
2022-12-15T05:14:30.062Z,100.00
2022-12-15T05:17:16.671Z,100.00
2022-12-15T05:20:04.639Z,100.00
2022-12-15T05:22:50.772Z,100.00
2022-12-15T05:25:36.589Z,100.00
2022-12-15T05:28:25.530Z,100.00
2022-12-15T05:31:11.630Z,100.00
2022-12-15T05:33:40.133Z,100.00
2022-12-15T05:36:08.270Z,100.00
2022-12-15T05:38:35.776Z,100.00
2022-12-15T05:41:03.320Z,100.00
2022-12-15T05:43:31.316Z,100.00
2022-12-15T05:46:04.279Z,100.00
2022-12-15T05:48:33.396Z,100.00
2022-12-15T05:51:10.767Z,100.00
2022-12-15T05:53:40.092Z,100.00
2022-12-15T05:56:11.130Z,100.00
2022-12-15T05:58:44.882Z,100.00
2022-12-15T06:01:16.720Z,100.00
2022-12-15T06:03:44.590Z,100.00
2022-12-15T06:06:13.428Z,100.00
2022-12-15T06:08:42.846Z,100.00
2022-12-15T06:11:15.466Z,100.00
2022-12-15T06:13:45.014Z,100.00
2022-12-15T06:16:15.404Z,100.00
2022-12-15T06:18:49.929Z,100.00
2022-12-15T06:21:27.409Z,100.00
2022-12-15T06:23:58.192Z,100.00
2022-12-15T06:26:28.568Z,100.00
2022-12-15T06:28:58.336Z,100.00
2022-12-15T06:31:27.979Z,100.00
2022-12-15T06:34:01.737Z,100.00
2022-12-15T06:36:35.773Z,100.00
2022-12-15T06:39:06.121Z,100.00
2022-12-15T06:41:36.470Z,100.00
2022-12-15T06:44:05.565Z,100.00
2022-12-15T06:46:35.579Z,100.00
2022-12-15T06:49:03.663Z,100.00
2022-12-15T06:51:30.946Z,100.00
2022-12-15T06:53:59.438Z,100.00
2022-12-15T06:56:33.665Z,100.00
2022-12-15T06:59:03.930Z,100.00
2022-12-15T07:01:32.167Z,100.00
2022-12-15T07:04:02.928Z,100.00
2022-12-15T07:06:38.748Z,100.00
2022-12-15T07:09:08.588Z,100.00
2022-12-15T07:11:36.469Z,100.00
2022-12-15T07:14:10.806Z,100.00
2022-12-15T07:16:38.218Z,100.00
2022-12-15T07:19:11.730Z,100.00
2022-12-15T07:21:39.340Z,100.00
2022-12-15T07:24:08.088Z,100.00
2022-12-15T07:26:35.648Z,100.00
2022-12-15T07:29:04.260Z,100.00
2022-12-15T07:31:32.249Z,100.00
2022-12-15T07:33:59.864Z,100.00
2022-12-15T07:36:30.335Z,100.00
2022-12-15T07:39:01.091Z,100.00
2022-12-15T07:41:30.287Z,100.00
2022-12-15T07:43:58.760Z,100.00
2022-12-15T07:46:27.480Z,100.00
2022-12-15T07:49:01.064Z,100.00
2022-12-15T07:51:28.504Z,100.00
2022-12-15T07:53:57.399Z,100.00
2022-12-15T07:56:24.746Z,100.00
2022-12-15T07:58:52.384Z,100.00
2022-12-15T08:01:20.297Z,100.00
2022-12-15T08:03:54.229Z,100.00
2022-12-15T08:06:21.843Z,100.00
2022-12-15T08:09:01.353Z,100.00
2022-12-15T08:11:35.410Z,100.00
2022-12-15T08:14:04.971Z,100.00
2022-12-15T08:16:36.743Z,100.00
2022-12-15T08:19:06.634Z,100.00
2022-12-15T08:21:36.046Z,100.00
2022-12-15T08:24:07.158Z,100.00
2022-12-15T08:26:38.838Z,100.00
2022-12-15T08:29:49.994Z,100.00
2022-12-15T08:31:57.787Z,100.00
2022-12-15T08:34:25.287Z,100.00
2022-12-15T08:36:52.551Z,100.00
2022-12-15T08:39:20.632Z,100.00
2022-12-15T08:41:47.935Z,100.00
2022-12-15T08:44:46.095Z,100.00
2022-12-15T08:47:19.454Z,100.00
2022-12-15T08:49:48.726Z,100.00
2022-12-15T08:52:18.969Z,100.00
2022-12-15T08:54:49.551Z,100.00
2022-12-15T08:57:23.250Z,100.00
2022-12-15T08:59:53.386Z,100.00
2022-12-15T09:02:25.353Z,100.00
2022-12-15T09:04:58.139Z,100.00
2022-12-15T09:07:28.395Z,100.00
2022-12-15T09:10:00.192Z,100.00
2022-12-15T09:12:31.550Z,100.00
2022-12-15T09:15:02.459Z,100.00
2022-12-15T09:17:31.222Z,100.00
2022-12-15T09:20:02.739Z,100.00
2022-12-15T09:22:34.290Z,100.00
2022-12-15T09:25:05.925Z,100.00
2022-12-15T09:27:34.682Z,100.00
2022-12-15T09:30:07.277Z,100.00
2022-12-15T09:32:37.949Z,100.00
2022-12-15T09:35:07.185Z,100.00
2022-12-15T09:37:34.568Z,100.00
2022-12-15T09:40:09.526Z,100.00
2022-12-15T09:42:39.610Z,100.00
2022-12-15T09:45:26.105Z,100.00
2022-12-15T09:48:05.743Z,100.00
2022-12-15T09:50:39.956Z,100.00
2022-12-15T09:53:45.669Z,100.00
2022-12-15T09:56:15.606Z,100.00
2022-12-15T09:59:24.847Z,100.00
2022-12-15T10:02:35.901Z,100.00
2022-12-15T10:05:50.151Z,100.00
2022-12-15T10:08:19.262Z,100.00
2022-12-15T10:11:01.337Z,100.00
2022-12-15T10:14:22.317Z,100.00
2022-12-15T10:17:00.202Z,100.00
2022-12-15T10:19:36.702Z,100.00
2022-12-15T10:22:04.204Z,100.00
2022-12-15T10:27:56.219Z,100.00
2022-12-15T10:30:23.936Z,100.00
2022-12-15T10:33:00.069Z,100.00
2022-12-15T10:35:32.116Z,100.00
2022-12-15T10:38:01.862Z,96.41
2022-12-15T10:40:55.644Z,98.87
2022-12-15T10:43:30.652Z,96.71
2022-12-15T10:46:20.784Z,99.05
2022-12-15T10:48:51.142Z,96.26
2022-12-15T10:51:21.601Z,88.66
2022-12-15T10:53:53.104Z,82.08
2022-12-15T10:56:32.881Z,72.44
2022-12-15T10:59:26.382Z,65.82
2022-12-15T11:01:55.276Z,66.20
2022-12-15T11:04:31.580Z,64.17
2022-12-15T11:07:01.405Z,65.11
2022-12-15T11:09:36.108Z,67.05
2022-12-15T11:12:36.584Z,66.29
2022-12-15T11:15:23.736Z,70.59
2022-12-15T11:18:25.539Z,69.74
2022-12-15T11:20:59.762Z,68.97
2022-12-15T11:23:27.394Z,68.78
2022-12-15T11:26:06.831Z,69.00
2022-12-15T11:28:42.778Z,66.34
2022-12-15T11:31:20.513Z,65.95
2022-12-15T11:33:48.085Z,67.87
2022-12-15T11:36:39.225Z,73.55
2022-12-15T11:39:19.911Z,71.04
2022-12-15T11:42:15.198Z,70.24
2022-12-15T11:45:01.526Z,68.67
2022-12-15T11:47:45.012Z,67.44
2022-12-15T11:50:34.225Z,66.33
2022-12-15T11:53:15.146Z,67.56
2022-12-15T11:55:42.489Z,69.96
2022-12-15T11:58:23.092Z,68.09
2022-12-15T12:01:05.604Z,68.05
2022-12-15T12:04:14.759Z,70.27
2022-12-15T12:07:08.192Z,68.93
2022-12-15T12:09:39.353Z,67.74
2022-12-15T12:12:32.681Z,74.14
2022-12-15T12:15:18.049Z,71.50
2022-12-15T12:17:55.634Z,71.88
2022-12-15T12:20:28.117Z,70.38
2022-12-15T12:23:05.034Z,69.91
2022-12-15T12:25:40.888Z,69.79
2022-12-15T12:28:43.661Z,67.18
2022-12-15T12:31:33.639Z,65.72
2022-12-15T12:34:08.975Z,65.91
2022-12-15T12:36:36.569Z,66.19
2022-12-15T12:39:04.997Z,65.02
2022-12-15T12:41:59.821Z,66.09
2022-12-15T12:44:37.346Z,65.08
2022-12-15T12:47:07.130Z,67.44
2022-12-15T12:49:58.944Z,68.17
2022-12-15T12:52:37.311Z,67.92
2022-12-15T12:55:26.209Z,67.41
2022-12-15T12:57:54.480Z,70.20
2022-12-15T13:00:22.198Z,71.27
2022-12-15T13:02:52.529Z,70.49
2022-12-15T13:05:30.927Z,69.98
2022-12-15T13:08:07.069Z,69.11
2022-12-15T13:10:36.405Z,68.86
2022-12-15T13:13:34.443Z,68.07
2022-12-15T13:16:32.024Z,67.80
2022-12-15T13:19:09.038Z,69.74
2022-12-15T13:21:42.134Z,72.83
2022-12-15T13:24:35.548Z,77.05
2022-12-15T13:27:09.088Z,79.25
2022-12-15T13:29:53.597Z,82.97
2022-12-15T13:32:34.692Z,85.21
2022-12-15T13:35:20.729Z,83.88
2022-12-15T13:38:07.493Z,81.82
2022-12-15T13:40:38.869Z,83.67
2022-12-15T13:43:06.407Z,84.47
2022-12-15T13:45:53.884Z,88.33
2022-12-15T13:48:34.101Z,88.31
2022-12-15T13:51:10.225Z,90.06
2022-12-15T13:53:42.659Z,89.07
2022-12-15T13:56:25.681Z,91.63
2022-12-15T13:59:11.002Z,91.11
2022-12-15T14:01:38.795Z,94.23
2022-12-15T14:04:15.833Z,95.30
2022-12-15T14:07:02.166Z,95.02
2022-12-15T14:09:39.744Z,93.88
2022-12-15T14:12:13.901Z,94.94
2022-12-15T14:14:49.667Z,95.81
2022-12-15T14:17:19.768Z,97.42
2022-12-15T14:19:51.127Z,99.25
2022-12-15T14:22:36.344Z,100.00
2022-12-15T14:25:16.453Z,100.00
2022-12-15T14:27:43.660Z,100.00
2022-12-15T14:30:13.262Z,100.00
2022-12-15T14:32:42.574Z,100.00
2022-12-15T14:35:24.183Z,100.00
2022-12-15T14:37:52.059Z,100.00
2022-12-15T14:40:26.537Z,100.00
2022-12-15T14:42:56.320Z,100.00
2022-12-15T14:45:31.150Z,100.00
2022-12-15T14:48:30.953Z,100.00
2022-12-15T14:50:49.179Z,100.00
2022-12-15T14:53:21.452Z,100.00
2022-12-15T14:55:49.085Z,100.00
2022-12-15T14:58:54.675Z,100.00
2022-12-15T15:01:25.697Z,100.00
2022-12-15T15:04:05.448Z,100.00
2022-12-15T15:06:40.865Z,100.00
2022-12-15T15:09:21.748Z,100.00
2022-12-15T15:11:56.163Z,100.00
2022-12-15T15:14:27.309Z,100.00
2022-12-15T15:17:06.437Z,100.00
2022-12-15T15:19:39.417Z,100.00
2022-12-15T15:22:24.598Z,100.00
2022-12-15T15:24:52.567Z,100.00
2022-12-15T15:27:28.749Z,100.00
2022-12-15T15:30:14.730Z,100.00
2022-12-15T15:32:52.454Z,100.00
2022-12-15T15:35:20.283Z,100.00
2022-12-15T15:37:49.071Z,100.00
2022-12-15T15:40:17.790Z,100.00
2022-12-15T15:42:46.416Z,100.00
2022-12-15T15:45:13.983Z,100.00
2022-12-15T15:47:49.086Z,100.00
2022-12-15T15:50:25.459Z,100.00
2022-12-15T15:52:52.900Z,100.00
2022-12-15T15:55:27.467Z,100.00
2022-12-15T15:57:54.928Z,100.00
2022-12-15T16:00:24.950Z,100.00
2022-12-15T16:02:52.839Z,100.00
2022-12-15T16:05:21.149Z,100.00
2022-12-15T16:07:48.900Z,100.00
2022-12-15T16:10:18.847Z,100.00
2022-12-15T16:12:50.230Z,100.00
2022-12-15T16:15:20.922Z,100.00
2022-12-15T16:17:48.358Z,100.00
2022-12-15T16:20:18.712Z,100.00
2022-12-15T16:22:51.133Z,100.00
2022-12-15T16:25:33.451Z,100.00
2022-12-15T16:28:17.995Z,100.00
2022-12-15T16:30:45.602Z,100.00
2022-12-15T16:33:13.325Z,100.00
2022-12-15T16:35:42.027Z,100.00
2022-12-15T16:38:31.977Z,100.00
2022-12-15T16:41:06.759Z,100.00
2022-12-15T16:43:41.577Z,100.00
2022-12-15T16:46:19.288Z,100.00
2022-12-15T16:48:46.949Z,100.00
2022-12-15T16:51:35.719Z,100.00
2022-12-15T16:54:03.275Z,100.00
2022-12-15T16:56:30.339Z,100.00
2022-12-15T16:59:30.854Z,100.00
2022-12-15T17:01:45.778Z,100.00
2022-12-15T17:04:16.357Z,100.00
2022-12-15T17:06:43.726Z,100.00
2022-12-15T17:09:21.128Z,100.00
2022-12-15T17:11:48.498Z,100.00
2022-12-15T17:14:16.638Z,100.00
2022-12-15T17:16:44.780Z,100.00
2022-12-15T17:19:17.662Z,100.00
2022-12-15T17:21:52.835Z,100.00
2022-12-15T17:24:22.386Z,100.00
2022-12-15T17:26:50.508Z,100.00
2022-12-15T17:29:23.647Z,100.00
2022-12-15T17:31:50.995Z,100.00
2022-12-15T17:34:31.137Z,100.00
2022-12-15T17:37:00.949Z,100.00
2022-12-15T17:39:29.475Z,100.00
2022-12-15T17:42:00.607Z,100.00
2022-12-15T17:44:35.717Z,100.00
2022-12-15T17:47:07.710Z,100.00
2022-12-15T17:49:54.430Z,100.00
2022-12-15T17:52:30.029Z,100.00
2022-12-15T17:54:57.883Z,100.00
2022-12-15T17:57:25.754Z,100.00
2022-12-15T17:59:53.556Z,100.00
2022-12-15T18:02:21.884Z,100.00
2022-12-15T18:04:50.120Z,100.00
2022-12-15T18:07:20.867Z,100.00
2022-12-15T18:09:50.257Z,100.00
2022-12-15T18:12:26.464Z,100.00
2022-12-15T18:14:55.521Z,100.00
2022-12-15T18:17:23.792Z,100.00
2022-12-15T18:19:51.356Z,100.00
2022-12-15T18:22:27.090Z,100.00
2022-12-15T18:24:54.778Z,100.00
2022-12-15T18:27:29.515Z,100.00
2022-12-15T18:29:57.320Z,100.00
2022-12-15T18:32:27.360Z,100.00
2022-12-15T18:34:57.695Z,100.00
2022-12-15T18:37:25.445Z,100.00
2022-12-15T18:39:53.012Z,100.00
2022-12-15T18:42:22.356Z,100.00
2022-12-15T18:44:52.623Z,100.00
2022-12-15T18:47:23.217Z,100.00
2022-12-15T18:49:51.387Z,100.00
2022-12-15T18:52:24.153Z,100.00
2022-12-15T18:54:54.262Z,100.00
2022-12-15T18:57:33.237Z,100.00
2022-12-15T19:00:11.931Z,100.00
2022-12-15T19:02:39.653Z,100.00
2022-12-15T19:05:25.527Z,100.00
2022-12-15T19:07:54.000Z,100.00
2022-12-15T19:10:21.481Z,100.00
2022-12-15T19:12:48.826Z,100.00
2022-12-15T19:15:19.416Z,100.00
2022-12-15T19:18:05.332Z,100.00
2022-12-15T19:20:51.400Z,100.00
2022-12-15T19:23:19.093Z,100.00
2022-12-15T19:25:48.632Z,100.00
2022-12-15T19:28:21.061Z,100.00
2022-12-15T19:30:49.037Z,100.00
2022-12-15T19:33:17.237Z,100.00
2022-12-15T19:35:47.783Z,100.00
2022-12-15T19:38:28.320Z,100.00
2022-12-15T19:40:57.831Z,100.00
2022-12-15T19:43:25.719Z,100.00
2022-12-15T19:45:53.434Z,100.00
2022-12-15T19:48:23.862Z,100.00
2022-12-15T19:50:52.484Z,100.00
2022-12-15T19:53:28.302Z,100.00
2022-12-15T19:56:04.029Z,100.00
2022-12-15T19:58:35.229Z,100.00
2022-12-15T20:01:08.970Z,100.00
2022-12-15T20:03:37.052Z,100.00
2022-12-15T20:06:13.697Z,100.00
2022-12-15T20:08:42.792Z,100.00
2022-12-15T20:11:21.822Z,100.00
2022-12-15T20:13:49.970Z,100.00
2022-12-15T20:16:19.296Z,100.00
2022-12-15T20:18:51.217Z,100.00
2022-12-15T20:21:22.574Z,100.00
2022-12-15T20:24:00.589Z,100.00
2022-12-15T20:26:30.461Z,100.00
2022-12-15T20:28:58.203Z,100.00
2022-12-15T20:31:26.492Z,100.00
2022-12-15T20:33:54.182Z,100.00
2022-12-15T20:36:28.182Z,100.00
2022-12-15T20:38:56.661Z,100.00
2022-12-15T20:41:27.445Z,100.00
2022-12-15T20:43:56.527Z,100.00
2022-12-15T20:46:27.073Z,100.00
2022-12-15T20:48:55.825Z,100.00
2022-12-15T20:51:32.198Z,100.00
2022-12-15T20:54:01.355Z,100.00
2022-12-15T20:56:29.553Z,100.00
2022-12-15T20:58:57.972Z,100.00
2022-12-15T21:01:35.380Z,100.00
2022-12-15T21:04:17.901Z,100.00
2022-12-15T21:06:46.660Z,100.00
2022-12-15T21:09:20.645Z,100.00
2022-12-15T21:11:49.704Z,100.00
2022-12-15T21:14:19.995Z,100.00
2022-12-15T21:16:50.313Z,100.00
2022-12-15T21:19:21.695Z,100.00
2022-12-15T21:21:55.104Z,100.00
2022-12-15T21:24:26.005Z,100.00
2022-12-15T21:26:53.789Z,100.00
2022-12-15T21:29:24.538Z,100.00
2022-12-15T21:31:52.064Z,100.00
2022-12-15T21:34:19.193Z,100.00
2022-12-15T21:36:51.978Z,100.00
2022-12-15T21:39:26.823Z,100.00
2022-12-15T21:41:54.970Z,100.00
2022-12-15T21:44:24.570Z,100.00
2022-12-15T21:46:51.929Z,100.00
2022-12-15T21:49:19.178Z,100.00
2022-12-15T21:51:51.961Z,100.00
2022-12-15T21:54:20.406Z,100.00
2022-12-15T21:56:49.512Z,100.00
2022-12-15T21:59:22.500Z,100.00
2022-12-15T22:01:51.407Z,100.00
2022-12-15T22:04:49.342Z,100.00
2022-12-15T22:07:19.276Z,100.00
2022-12-15T22:09:46.402Z,100.00
2022-12-15T22:12:22.889Z,100.00
2022-12-15T22:14:50.051Z,100.00
2022-12-15T22:17:21.861Z,100.00
2022-12-15T22:19:49.098Z,100.00
2022-12-15T22:22:16.782Z,100.00
2022-12-15T22:24:46.262Z,100.00
2022-12-15T22:27:22.314Z,100.00
2022-12-15T22:29:50.554Z,100.00
2022-12-15T22:32:18.166Z,100.00
2022-12-15T22:34:46.494Z,100.00
2022-12-15T22:37:13.942Z,100.00
2022-12-15T22:39:41.247Z,100.00
2022-12-15T22:42:16.541Z,100.00
2022-12-15T22:44:45.113Z,100.00
2022-12-15T22:47:12.534Z,100.00
2022-12-15T22:49:41.059Z,100.00
2022-12-15T22:52:20.695Z,100.00
2022-12-15T22:54:48.079Z,100.00
2022-12-15T22:57:23.114Z,100.00
2022-12-15T22:59:54.590Z,100.00
2022-12-15T23:02:22.264Z,100.00
2022-12-15T23:04:50.019Z,100.00
2022-12-15T23:07:20.115Z,100.00
2022-12-15T23:09:48.177Z,100.00
2022-12-15T23:12:16.133Z,100.00
2022-12-15T23:15:02.919Z,100.00
2022-12-15T23:17:32.730Z,100.00
2022-12-15T23:19:59.784Z,100.00
2022-12-15T23:22:28.225Z,100.00
2022-12-15T23:24:55.910Z,100.00
2022-12-15T23:27:23.459Z,100.00
2022-12-15T23:29:50.528Z,100.00
2022-12-15T23:32:19.201Z,100.00
2022-12-15T23:34:48.586Z,100.00
2022-12-15T23:37:16.382Z,100.00
2022-12-15T23:39:43.800Z,100.00
2022-12-15T23:42:11.806Z,100.00
2022-12-15T23:44:41.317Z,100.00
2022-12-15T23:47:09.045Z,100.00
2022-12-15T23:49:36.153Z,100.00
2022-12-15T23:52:03.641Z,100.00
2022-12-15T23:54:30.744Z,100.00
2022-12-15T23:56:58.174Z,100.00
2022-12-15T23:59:25.542Z,100.00
